Pagina principale
METAR-TAF:

METAR-TAF

Aeroporti :

Keetmanshoop, Namibia

latitudine: 26-32S, longitudine: 018-07E, altezza: 1067 m

Osservazione

Il bollettino è stato emesso 54 minuti fa, alle 05:00 UTC
Vento 9 kt da est
Temperature 21°C
Umidità 11%
Pressione 1006 hPa

METAR: FYKT 160500Z AUTO 09009KT //// // ////// 21/M11 Q1006

Ora: 07:54 (05:54 UTC)

Previsione

Il bollettino è stato emesso 1 ora e 54 minuti fa, alle 04:00 UTC
Previsione valida dal 16 alle 06 UTC al 17 alle 06 UTC
Vento 9 kt da est
Visibilità 10 km o più
nessuna nube inferiore a 1500 m e nessun cumulonembo
Evoluzione graduale
dal 16 alle 10 UTC al 16 alle 12 UTC
Vento 9 kt da nord

TAF: FYKT 160400Z 1606/1706 08009KT CAVOK BECMG 1610/1612 35009KT

Osservazioni e previsioni meteorologiche di più di 4000 aeroporti (messaggi METAR e TAF).

Le stazioni disponibili sono rappresentate dai dischi gialli e rossi sulla carta.

Puntare il mouse per vedere il nome della stazione.

Clicca sopra per visualizzare le osservazioni e previsioni meteorologiche.

Per cambiare la mappa : fare clic sui pulsanti verdi con una croce nera per ingrandire, il pulsante verde con un trattino per diminuire, o sulla freccia verde per le mappe adiacenti.


METAR-TAF: